Terminal Aerodrome Forecast
Issued by NWS Omaha/Valley, NE

Home | Current Version | Previous Version | Text Only | Print | Product List | Glossary On
Versions: 1 2 3 4 5 6 7 8 9 10 11 12 13 14 15 16 17 18 19 20 21 22 23 24 25 26 27 28 29 30 31 32 33 34
000
FTUS43 KOAX 232320
TAFOFK
TAF
KOFK 232320Z 2400/2424 34015G23KT P6SM SCT025 BKN040
      TEMPO 2400/2402 5SM -SHRA BKN025
     FM240400 34009KT P6SM BKN050
     FM241100 33008KT P6SM BKN009
     FM241700 36006KT P6SM SCT070=

USA.gov is the U.S. government's official web portal to all federal, state and local government web resources and services.